Time;durP1;ratioP1;P1;durP2;ratioP2;P2;SDS_P1;SDS_P2;PMS_P1;PMS_P2;Temp;Humidity;BMP_temperature;BMP_pressure;BME280_temperature;BME280_humidity;BME280_pressure;Samples;Min_cycle;Max_cycle;Signal;HPM_P1;HPM_P2
2022/10/28 00:01:25;;;;;;;;;;;13.50;99.90;;;;;;4955196;29;19922;-86
2022/10/28 00:03:51;;;;;;;;;;;13.50;99.90;;;;;;4937934;29;19922;-86
2022/10/28 00:06:24;;;;;;;;;;;13.50;99.90;;;;;;4955274;29;19981;-86
2022/10/28 00:08:50;;;;;;;;;;;13.50;99.90;;;;;;4937080;29;19929;-86
2022/10/28 00:11:17;;;;;;;;;;;14.80;99.90;;;;;;4937796;29;19922;-86
2022/10/28 00:13:43;;;;;;;;;;;13.60;99.90;;;;;;4955231;29;19965;-86
2022/10/28 00:16:16;;;;;;;;;;;14.30;99.90;;;;;;4954342;29;19929;-86
2022/10/28 00:18:52;;;;;;;;;;;13.60;99.90;;;;;;4938077;29;19922;-86
2022/10/28 00:21:23;;;;;;;;;;;13.60;99.90;;;;;;5174598;23;20330;-86
2022/10/28 00:23:49;;;;;;;;;;;13.70;99.90;;;;;;5009368;23;19926;-86
2022/10/28 00:26:16;;;;;;;;;;;13.70;99.90;;;;;;5022171;23;19929;-86
2022/10/28 00:28:43;;;;;;;;;;;13.60;99.90;;;;;;4955328;29;19970;-86
2022/10/28 00:31:12;;;;;;;;;;;13.90;99.90;;;;;;4953051;29;19929;-86
2022/10/28 00:37:08;;;;;;;;;;;14.00;99.90;;;;;;4954132;29;19929;-86
2022/10/28 00:39:52;;;;;;;;;;;14.10;99.90;;;;;;4937662;29;20016;-86
2022/10/28 00:42:35;;;;;;;;;;;13.80;99.90;;;;;;4954917;29;19969;-86
2022/10/28 00:45:01;;;;;;;;;;;14.20;99.90;;;;;;4937078;29;19927;-86
2022/10/28 00:47:50;;;;;;;;;;;15.60;99.90;;;;;;4954754;29;20273;-86
2022/10/28 00:50:34;;;;;;;;;;;14.00;99.90;;;;;;4954977;29;19977;-86
2022/10/28 00:53:05;;;;;;;;;;;14.40;99.90;;;;;;4937059;29;20024;-86
2022/10/28 00:55:31;;;;;;;;;;;15.50;99.90;;;;;;4937306;29;19922;-86
2022/10/28 00:57:58;;;;;;;;;;;14.50;99.90;;;;;;4937701;29;19926;-86
2022/10/28 01:00:24;;;;;;;;;;;15.30;99.90;;;;;;4936432;29;19928;-86
2022/10/28 01:02:49;;;;;;;;;;;15.10;99.90;;;;;;4938063;29;20317;-86
2022/10/28 01:05:23;;;;;;;;;;;14.50;99.90;;;;;;4936692;29;19918;-86
2022/10/28 01:07:50;;;;;;;;;;;14.50;99.90;;;;;;4955140;29;19930;-86
2022/10/28 01:10:15;;;;;;;;;;;14.50;99.90;;;;;;4954651;29;19966;-86
2022/10/28 01:12:56;;;;;;;;;;;15.10;99.90;;;;;;4937219;29;19964;-86
2022/10/28 01:15:27;;;;;;;;;;;14.40;99.90;;;;;;4936759;29;20358;-86
2022/10/28 01:17:58;;;;;;;;;;;14.40;99.90;;;;;;4955084;29;20021;-86
2022/10/28 01:20:33;;;;;;;;;;;14.40;99.90;;;;;;4939438;29;19934;-86
2022/10/28 01:26:29;;;;;;;;;;;14.20;99.90;;;;;;5026738;23;19922;-86
2022/10/28 01:34:24;;;;;;;;;;;14.10;99.90;;;;;;5474960;23;20103;-86
2022/10/28 01:36:58;;;;;;;;;;;14.10;99.90;;;;;;4940880;29;20317;-86
2022/10/28 01:39:30;;;;;;;;;;;14.00;99.90;;;;;;4940221;29;19922;-86
2022/10/28 01:42:00;;;;;;;;;;;14.00;99.90;;;;;;4957462;29;19987;-86
2022/10/28 01:44:29;;;;;;;;;;;13.90;99.90;;;;;;4957302;29;19973;-86
2022/10/28 01:46:59;;;;;;;;;;;14.50;99.90;;;;;;4940840;29;19982;-86
2022/10/28 01:49:29;;;;;;;;;;;13.80;99.90;;;;;;4939456;29;19922;-86
2022/10/28 01:51:57;;;;;;;;;;;14.80;99.90;;;;;;4940358;29;19929;-86
2022/10/28 01:54:24;;;;;;;;;;;13.80;99.90;;;;;;4939383;29;19922;-86
2022/10/28 01:56:52;;;;;;;;;;;14.10;99.90;;;;;;4957613;29;20326;-86
2022/10/28 01:59:19;;;;;;;;;;;13.70;99.90;;;;;;4957780;29;19926;-86
2022/10/28 02:01:45;;;;;;;;;;;13.70;99.90;;;;;;4967921;28;20016;-86
2022/10/28 02:04:10;;;;;;;;;;;13.70;99.90;;;;;;4959164;28;20020;-86
2022/10/28 02:06:37;;;;;;;;;;;13.80;99.90;;;;;;4976421;28;19922;-86
2022/10/28 02:09:06;;;;;;;;;;;14.60;99.90;;;;;;4958700;28;19929;-86
2022/10/28 02:11:43;;;;;;;;;;;13.70;99.90;;;;;;4976944;28;19918;-86
2022/10/28 02:14:38;;;;;;;;;;;13.70;99.90;;;;;;4959050;28;20340;-86
2022/10/28 02:17:14;;;;;;;;;;;13.70;99.90;;;;;;4966666;28;19922;-86
2022/10/28 02:19:55;;;;;;;;;;;13.70;99.90;;;;;;4959070;28;20024;-86
2022/10/28 02:22:21;;;;;;;;;;;13.80;99.90;;;;;;4958759;28;19929;-86
2022/10/28 02:24:46;;;;;;;;;;;14.60;99.90;;;;;;5047580;23;19922;-86
2022/10/28 02:30:07;;;;;;;;;;;13.80;99.90;;;;;;5760570;23;19929;-86
2022/10/28 02:32:37;;;;;;;;;;;13.90;99.90;;;;;;4938164;29;19929;-86
2022/10/28 02:37:40;;;;;;;;;;;13.70;99.90;;;;;;4916824;29;20374;-86
2022/10/28 02:40:08;;;;;;;;;;;14.20;99.90;;;;;;4901663;29;19923;-86
2022/10/28 02:42:36;;;;;;;;;;;13.50;99.90;;;;;;4901640;29;19926;-86
2022/10/28 02:45:05;;;;;;;;;;;14.60;99.90;;;;;;4901055;29;19946;-86
2022/10/28 02:47:32;;;;;;;;;;;13.80;99.90;;;;;;4901514;29;19938;-86
2022/10/28 02:50:02;;;;;;;;;;;14.00;99.90;;;;;;4918666;29;20071;-86
2022/10/28 02:55:35;;;;;;;;;;;13.30;99.90;;;;;;4897571;29;20360;-86
2022/10/28 02:58:06;;;;;;;;;;;14.30;99.90;;;;;;4881252;29;19979;-86
2022/10/28 03:00:32;;;;;;;;;;;13.00;99.90;;;;;;4881750;29;20360;-86
2022/10/28 03:02:57;;;;;;;;;;;13.70;99.90;;;;;;4923924;23;19924;-86
2022/10/28 03:08:52;;;;;;;;;;;12.80;99.90;;;;;;4956220;29;19917;-86
2022/10/28 03:11:30;;;;;;;;;;;12.70;99.90;;;;;;4939123;29;19922;-86
2022/10/28 03:14:05;;;;;;;;;;;12.60;99.90;;;;;;4938880;29;19982;-86
2022/10/28 03:16:39;;;;;;;;;;;12.60;99.90;;;;;;4956066;29;19945;-86
2022/10/28 03:19:20;;;;;;;;;;;12.70;99.90;;;;;;4955530;29;20294;-86
2022/10/28 03:21:58;;;;;;;;;;;12.50;99.90;;;;;;4939088;29;19932;-86
2022/10/28 03:24:38;;;;;;;;;;;12.40;99.90;;;;;;4955421;29;19923;-86
2022/10/28 03:27:13;;;;;;;;;;;12.30;99.90;;;;;;4938197;29;19965;-86
2022/10/28 03:29:44;;;;;;;;;;;12.30;99.90;;;;;;4952684;29;19922;-86
2022/10/28 03:32:31;;;;;;;;;;;12.20;99.90;;;;;;4956118;29;19923;-86
2022/10/28 03:35:15;;;;;;;;;;;11.80;99.90;;;;;;4938210;29;19987;-86
2022/10/28 03:37:42;;;;;;;;;;;12.20;99.90;;;;;;4939233;29;19933;-86
2022/10/28 03:40:08;;;;;;;;;;;13.30;99.90;;;;;;4937078;29;20671;-86
2022/10/28 03:42:48;;;;;;;;;;;12.00;99.90;;;;;;4938746;29;19929;-86
2022/10/28 03:45:23;;;;;;;;;;;12.00;99.90;;;;;;4955167;28;19945;-86
2022/10/28 03:48:04;;;;;;;;;;;11.40;99.90;;;;;;4938034;29;19922;-86
2022/10/28 03:50:29;;;;;;;;;;;11.80;99.90;;;;;;4955634;29;19923;-86
2022/10/28 03:53:10;;;;;;;;;;;12.90;99.90;;;;;;4953197;29;19923;-86
2022/10/28 03:55:54;;;;;;;;;;;11.70;99.90;;;;;;4954892;29;19929;-86
2022/10/28 03:58:21;;;;;;;;;;;11.10;99.90;;;;;;4955343;29;20385;-86
2022/10/28 04:04:08;;;;;;;;;;;11.80;99.90;;;;;;4959521;28;19980;-86
2022/10/28 04:06:34;;;;;;;;;;;11.20;99.90;;;;;;4974167;28;19966;-86
2022/10/28 04:08:59;;;;;;;;;;;12.70;99.90;;;;;;4956230;28;20006;-86
2022/10/28 04:11:25;;;;;;;;;;;11.80;99.90;;;;;;4956668;28;19926;-87
2022/10/28 04:13:50;;;;;;;;;;;12.70;99.90;;;;;;4974291;28;20017;-86
2022/10/28 04:16:16;;;;;;;;;;;11.80;99.90;;;;;;4955824;28;19969;-86
2022/10/28 04:18:44;;;;;;;;;;;11.80;99.90;;;;;;4956559;28;20012;-86
2022/10/28 04:21:11;;;;;;;;;;;11.80;99.90;;;;;;4956538;28;20013;-86
2022/10/28 04:23:51;;;;;;;;;;;11.50;99.90;;;;;;4956650;28;19933;-86
2022/10/28 04:26:23;;;;;;;;;;;12.20;99.90;;;;;;4975466;28;19925;-87
2022/10/28 04:28:48;;;;;;;;;;;11.90;99.90;;;;;;4959556;28;19937;-86
2022/10/28 04:31:14;;;;;;;;;;;11.90;99.90;;;;;;4957573;28;20017;-86
2022/10/28 04:34:03;;;;;;;;;;;11.90;99.90;;;;;;4973849;28;19976;-86
2022/10/28 04:36:29;;;;;;;;;;;12.00;99.90;;;;;;4956286;28;20004;-86
2022/10/28 04:38:54;;;;;;;;;;;12.00;99.90;;;;;;4957515;28;19976;-86
2022/10/28 04:41:20;;;;;;;;;;;13.40;99.90;;;;;;4975939;28;19922;-86
2022/10/28 04:43:46;;;;;;;;;;;12.50;99.90;;;;;;4959089;28;20380;-86
2022/10/28 04:46:31;;;;;;;;;;;12.70;99.90;;;;;;4974865;28;19925;-86
2022/10/28 04:49:12;;;;;;;;;;;12.00;99.90;;;;;;4957541;28;19926;-86
2022/10/28 04:51:40;;;;;;;;;;;12.00;99.90;;;;;;4975086;28;19921;-86
2022/10/28 04:54:18;;;;;;;;;;;12.00;99.90;;;;;;4957441;28;20017;-86
2022/10/28 04:56:56;;;;;;;;;;;11.90;99.90;;;;;;4959685;28;19922;-86
2022/10/28 04:59:24;;;;;;;;;;;11.70;99.90;;;;;;4960310;28;20343;-86
2022/10/28 05:01:50;;;;;;;;;;;12.00;99.90;;;;;;4964096;23;19923;-86
2022/10/28 05:04:15;;;;;;;;;;;12.00;99.90;;;;;;4957897;29;19923;-86
2022/10/28 05:06:41;;;;;;;;;;;11.90;99.90;;;;;;4958870;29;20009;-86
2022/10/28 05:09:06;;;;;;;;;;;12.80;99.90;;;;;;4958972;29;20025;-86
2022/10/28 05:11:32;;;;;;;;;;;11.90;99.90;;;;;;4957754;29;19922;-86
2022/10/28 05:13:57;;;;;;;;;;;11.90;99.90;;;;;;4958791;29;19933;-86
2022/10/28 05:16:23;;;;;;;;;;;12.10;99.90;;;;;;4941234;29;19929;-86
2022/10/28 05:18:49;;;;;;;;;;;12.60;99.90;;;;;;4940631;29;19929;-86
2022/10/28 05:21:21;;;;;;;;;;;11.80;99.90;;;;;;4958467;29;19923;-86
2022/10/28 05:23:47;;;;;;;;;;;11.80;99.90;;;;;;4941841;29;19928;-86
2022/10/28 05:26:43;;;;;;;;;;;12.90;99.90;;;;;;4956865;29;19970;-86
2022/10/28 05:29:08;;;;;;;;;;;11.80;99.90;;;;;;4941080;29;19922;-86
2022/10/28 05:31:40;;;;;;;;;;;12.60;99.90;;;;;;4957822;29;20399;-86
2022/10/28 05:34:18;;;;;;;;;;;11.60;99.90;;;;;;4939972;29;19930;-86
2022/10/28 05:36:55;;;;;;;;;;;11.80;99.90;;;;;;4941190;29;19968;-86
2022/10/28 05:39:24;;;;;;;;;;;11.70;99.90;;;;;;4964264;23;20290;-86
2022/10/28 05:41:49;;;;;;;;;;;11.70;99.90;;;;;;4941069;29;19926;-86
2022/10/28 05:52:02;;;;;;;;;;;11.60;99.90;;;;;;6000607;23;19925;-86
2022/10/28 05:54:28;;;;;;;;;;;11.50;99.90;;;;;;4939472;29;19922;-86
2022/10/28 05:56:54;;;;;;;;;;;11.50;99.90;;;;;;4940581;29;19929;-86
2022/10/28 05:59:19;;;;;;;;;;;11.40;99.90;;;;;;4957773;29;19922;-86
2022/10/28 06:01:45;;;;;;;;;;;11.40;99.90;;;;;;4939356;29;19926;-86
2022/10/28 06:04:10;;;;;;;;;;;11.50;99.90;;;;;;4957628;29;20028;-87
2022/10/28 06:06:35;;;;;;;;;;;11.40;99.90;;;;;;4957046;28;19926;-86
2022/10/28 06:09:01;;;;;;;;;;;11.80;99.90;;;;;;4939927;29;20331;-86
2022/10/28 06:11:27;;;;;;;;;;;11.30;99.90;;;;;;4939996;29;19926;-86
2022/10/28 06:13:52;;;;;;;;;;;12.00;99.90;;;;;;4940369;29;19929;-86
2022/10/28 06:16:18;;;;;;;;;;;11.70;99.90;;;;;;4939031;29;19973;-84
2022/10/28 06:18:43;;;;;;;;;;;11.20;99.90;;;;;;4940112;29;19976;-86
2022/10/28 06:21:09;;;;;;;;;;;12.20;99.90;;;;;;4940181;29;19922;-87
2022/10/28 06:23:34;;;;;;;;;;;11.20;99.90;;;;;;4939699;29;20366;-87
2022/10/28 06:26:00;;;;;;;;;;;12.00;99.90;;;;;;4957488;29;19922;-87
2022/10/28 06:28:27;;;;;;;;;;;11.10;99.90;;;;;;4954222;29;20383;-87
2022/10/28 06:30:52;;;;;;;;;;;12.30;99.90;;;;;;4939284;29;20359;-86
2022/10/28 06:33:42;;;;;;;;;;;11.00;99.90;;;;;;4957152;29;20016;-86
2022/10/28 06:36:15;;;;;;;;;;;11.10;99.90;;;;;;4955973;29;20363;-87
2022/10/28 06:38:40;;;;;;;;;;;11.10;99.90;;;;;;4957360;29;19922;-86
2022/10/28 06:41:06;;;;;;;;;;;12.30;99.90;;;;;;4956991;29;20421;-86
2022/10/28 06:49:15;;;;;;;;;;;10.60;99.90;;;;;;4918904;23;19977;-87
2022/10/28 06:51:41;;;;;;;;;;;11.00;99.90;;;;;;4955633;29;19973;-85
2022/10/28 06:54:06;;;;;;;;;;;11.10;99.90;;;;;;4939915;29;19930;-85
2022/10/28 06:56:32;;;;;;;;;;;11.00;99.90;;;;;;4956921;29;20005;-85
2022/10/28 06:59:12;;;;;;;;;;;11.00;99.90;;;;;;4956252;29;19929;-85
2022/10/28 07:01:43;;;;;;;;;;;11.40;99.90;;;;;;4956840;29;19926;-85
2022/10/28 07:04:14;;;;;;;;;;;11.30;99.90;;;;;;4955925;29;20017;-85
2022/10/28 07:09:20;;;;;;;;;;;10.30;99.90;;;;;;4963092;23;19929;-85
2022/10/28 07:11:48;;;;;;;;;;;11.10;99.90;;;;;;4955746;29;20149;-85
2022/10/28 07:14:14;;;;;;;;;;;11.20;99.90;;;;;;4938691;29;19923;-85
2022/10/28 07:16:40;;;;;;;;;;;11.50;99.90;;;;;;4939239;29;19992;-85
2022/10/28 07:19:06;;;;;;;;;;;12.30;99.90;;;;;;4954970;28;19922;-85
2022/10/28 07:21:35;;;;;;;;;;;11.90;99.90;;;;;;4956434;29;20267;-85
2022/10/28 07:24:00;;;;;;;;;;;11.50;99.90;;;;;;4955985;29;19922;-85
2022/10/28 07:26:26;;;;;;;;;;;11.70;99.90;;;;;;4954784;29;20069;-86
2022/10/28 07:28:52;;;;;;;;;;;11.90;99.90;;;;;;4939301;29;20294;-85
2022/10/28 07:31:17;;;;;;;;;;;12.00;99.90;;;;;;4937881;29;19926;-85
2022/10/28 07:33:43;;;;;;;;;;;12.10;99.90;;;;;;4955096;29;20310;-85
2022/10/28 07:36:09;;;;;;;;;;;12.50;99.90;;;;;;4955900;29;19937;-85
2022/10/28 07:38:34;;;;;;;;;;;12.50;99.90;;;;;;4938791;29;19922;-83
2022/10/28 07:41:07;;;;;;;;;;;12.70;99.90;;;;;;4937863;29;19922;-83
2022/10/28 07:43:36;;;;;;;;;;;12.90;99.90;;;;;;4962732;23;19995;-85
2022/10/28 07:46:26;;;;;;;;;;;13.00;99.90;;;;;;4944134;23;19922;-85
2022/10/28 07:48:52;;;;;;;;;;;13.00;99.90;;;;;;4955806;29;20001;-85
2022/10/28 07:51:20;;;;;;;;;;;13.30;99.90;;;;;;4938273;29;20462;-85
2022/10/28 07:53:55;;;;;;;;;;;13.60;99.90;;;;;;4952690;29;20001;-85
2022/10/28 07:56:21;;;;;;;;;;;14.40;99.90;;;;;;4937760;29;19993;-85
2022/10/28 07:58:47;;;;;;;;;;;14.00;99.90;;;;;;4938456;29;20457;-85
2022/10/28 08:01:14;;;;;;;;;;;15.20;99.90;;;;;;4937643;29;19922;-85
2022/10/28 08:06:14;;;;;;;;;;;14.40;99.90;;;;;;4953632;28;19929;-82
2022/10/28 08:08:40;;;;;;;;;;;14.60;99.90;;;;;;4936404;29;19923;-82
2022/10/28 08:11:10;;;;;;;;;;;14.70;99.90;;;;;;4937871;29;20298;-82
2022/10/28 08:13:35;;;;;;;;;;;14.90;99.90;;;;;;4937477;29;19928;-82
2022/10/28 08:16:01;;;;;;;;;;;15.00;99.90;;;;;;4954564;29;19929;-82
2022/10/28 08:18:26;;;;;;;;;;;16.10;99.90;;;;;;4954840;29;20294;-82
2022/10/28 08:20:52;;;;;;;;;;;15.20;99.90;;;;;;4955684;29;19930;-82
2022/10/28 08:23:17;;;;;;;;;;;15.80;99.90;;;;;;4937217;29;19973;-82
2022/10/28 08:25:50;;;;;;;;;;;15.50;99.90;;;;;;4937981;29;20409;-82
2022/10/28 08:28:16;;;;;;;;;;;15.60;99.90;;;;;;4954523;29;19965;-82
2022/10/28 08:30:41;;;;;;;;;;;16.40;99.90;;;;;;4938161;29;19996;-83
2022/10/28 08:33:07;;;;;;;;;;;15.80;99.90;;;;;;4954799;29;19931;-82
2022/10/28 08:35:34;;;;;;;;;;;17.00;99.90;;;;;;4954554;29;19926;-82
2022/10/28 08:38:03;;;;;;;;;;;16.10;99.90;;;;;;4954981;29;20001;-84
2022/10/28 08:40:31;;;;;;;;;;;16.80;99.90;;;;;;4955160;29;19922;-84
2022/10/28 08:43:01;;;;;;;;;;;17.50;99.90;;;;;;4937473;29;19985;-83
2022/10/28 08:45:41;;;;;;;;;;;16.50;99.90;;;;;;4954823;29;20333;-85
2022/10/28 08:48:12;;;;;;;;;;;16.70;99.90;;;;;;4955020;29;20286;-83
2022/10/28 08:50:47;;;;;;;;;;;16.90;99.90;;;;;;4937055;29;19969;-82
2022/10/28 08:53:35;;;;;;;;;;;16.90;99.90;;;;;;4937859;29;20282;-82
2022/10/28 08:56:05;;;;;;;;;;;17.00;99.90;;;;;;4954919;29;20005;-82
2022/10/28 08:58:33;;;;;;;;;;;18.00;99.90;;;;;;4954067;29;20382;-82
2022/10/28 09:00:59;;;;;;;;;;;17.10;99.90;;;;;;4937471;29;20018;-82
2022/10/28 09:03:39;;;;;;;;;;;17.20;99.90;;;;;;4953630;29;19933;-84
2022/10/28 09:06:05;;;;;;;;;;;17.40;99.90;;;;;;4938061;29;19930;-84
2022/10/28 09:08:34;;;;;;;;;;;17.50;99.90;;;;;;4957086;29;19923;-82
2022/10/28 09:11:03;;;;;;;;;;;17.60;99.90;;;;;;4937188;29;19922;-83
2022/10/28 09:13:40;;;;;;;;;;;18.60;99.90;;;;;;4937100;29;19926;-83
2022/10/28 09:16:17;;;;;;;;;;;18.00;99.90;;;;;;4937060;29;19927;-82
2022/10/28 09:18:53;;;;;;;;;;;18.20;99.90;;;;;;4936661;29;20370;-82
2022/10/28 09:24:52;;;;;;;;;;;18.40;99.90;;;;;;4954004;29;20016;-83
2022/10/28 09:27:17;;;;;;;;;;;18.50;99.90;;;;;;4937161;29;19929;-83
2022/10/28 09:29:45;;;;;;;;;;;18.60;99.90;;;;;;4954663;29;19923;-83
2022/10/28 09:32:14;;;;;;;;;;;18.60;99.90;;;;;;4950158;29;19922;-83
2022/10/28 09:34:53;;;;;;;;;;;18.70;99.90;;;;;;4954846;29;19923;-83
2022/10/28 09:37:21;;;;;;;;;;;18.70;99.90;;;;;;4937219;29;20422;-82
2022/10/28 09:39:49;;;;;;;;;;;19.40;99.90;;;;;;4936634;29;19918;-83
2022/10/28 09:42:21;;;;;;;;;;;19.20;99.90;;;;;;4938789;29;20456;-82
2022/10/28 09:44:49;;;;;;;;;;;18.80;99.90;;;;;;4955016;29;20290;-82
2022/10/28 09:47:22;;;;;;;;;;;18.90;99.90;;;;;;4938913;29;20008;-83
2022/10/28 09:49:49;;;;;;;;;;;18.80;99.90;;;;;;4968543;28;20240;-82
2022/10/28 09:52:18;;;;;;;;;;;19.50;99.90;;;;;;4935142;28;19962;-83
2022/10/28 09:54:53;;;;;;;;;;;19.10;99.90;;;;;;4939260;29;20422;-83
2022/10/28 09:57:19;;;;;;;;;;;18.80;99.90;;;;;;4956957;29;19922;-83
2022/10/28 09:59:49;;;;;;;;;;;18.90;99.90;;;;;;4957006;29;19923;-83
2022/10/28 10:02:47;;;;;;;;;;;19.00;99.90;;;;;;4958770;28;20429;-83
2022/10/28 10:05:14;;;;;;;;;;;18.90;99.90;;;;;;4932173;29;20355;-83
2022/10/28 10:07:43;;;;;;;;;;;18.90;99.90;;;;;;4937548;29;20062;-83
2022/10/28 10:10:12;;;;;;;;;;;19.00;99.90;;;;;;4932068;29;20392;-83
2022/10/28 10:12:38;;;;;;;;;;;19.00;99.90;;;;;;4956915;28;19922;-83
2022/10/28 10:15:05;;;;;;;;;;;19.00;99.90;;;;;;4956474;29;19922;-83
2022/10/28 10:17:36;;;;;;;;;;;19.00;99.90;;;;;;4957323;29;19922;-83
2022/10/28 10:20:07;;;;;;;;;;;20.10;99.90;;;;;;4940149;29;19922;-84
2022/10/28 10:22:37;;;;;;;;;;;19.10;99.90;;;;;;4939609;29;19922;-86
2022/10/28 10:25:20;;;;;;;;;;;19.10;99.90;;;;;;4939183;29;19922;-86
2022/10/28 10:28:02;;;;;;;;;;;19.10;99.90;;;;;;4947786;23;19926;-85
2022/10/28 10:30:34;;;;;;;;;;;19.10;99.90;;;;;;4937017;29;20339;-87
2022/10/28 10:33:00;;;;;;;;;;;19.20;99.90;;;;;;4920861;29;20430;-87
2022/10/28 10:35:44;;;;;;;;;;;19.20;99.90;;;;;;4936171;29;19966;-87
2022/10/28 10:38:26;;;;;;;;;;;19.20;99.90;;;;;;4920841;29;20355;-87
2022/10/28 10:41:06;;;;;;;;;;;19.30;99.90;;;;;;4921115;29;19929;-87
2022/10/28 10:43:33;;;;;;;;;;;19.40;99.90;;;;;;4932719;23;19930;-87
2022/10/28 10:46:42;;;;;;;;;;;19.50;99.90;;;;;;4957056;29;19923;-85
2022/10/28 10:49:32;;;;;;;;;;;19.60;99.90;;;;;;4955744;29;19978;-85
2022/10/28 10:52:00;;;;;;;;;;;19.50;99.90;;;;;;4956742;29;20298;-87
2022/10/28 10:54:30;;;;;;;;;;;20.00;99.90;;;;;;4955762;28;20461;-85
2022/10/28 10:57:29;;;;;;;;;;;19.90;99.90;;;;;;4923673;29;19923;-86
2022/10/28 11:00:21;;;;;;;;;;;19.90;99.90;;;;;;4937670;29;19935;-86
2022/10/28 11:02:47;;;;;;;;;;;19.90;99.90;;;;;;4920397;29;19970;-85
2022/10/28 11:05:20;;;;;;;;;;;19.90;99.90;;;;;;4919651;29;20323;-85
2022/10/28 11:07:47;;;;;;;;;;;19.90;99.90;;;;;;4944788;29;19926;-85
2022/10/28 11:10:23;;;;;;;;;;;19.90;99.90;;;;;;4944820;28;20271;-85
2022/10/28 11:12:59;;;;;;;;;;;19.90;99.90;;;;;;4937189;29;19922;-85
2022/10/28 11:15:28;;;;;;;;;;;20.00;99.90;;;;;;4929152;29;19923;-85
2022/10/28 11:18:12;;;;;;;;;;;20.10;99.90;;;;;;4955018;29;19922;-85
2022/10/28 11:20:46;;;;;;;;;;;20.20;99.90;;;;;;4955812;29;19934;-85
2022/10/28 11:23:31;;;;;;;;;;;20.00;99.90;;;;;;4956027;29;19929;-86
2022/10/28 11:26:02;;;;;;;;;;;20.10;99.90;;;;;;4955619;29;19922;-85
2022/10/28 11:28:32;;;;;;;;;;;20.20;99.90;;;;;;4954552;29;20366;-86
2022/10/28 11:31:18;;;;;;;;;;;20.30;99.90;;;;;;4938954;29;20017;-85
2022/10/28 11:34:10;;;;;;;;;;;20.40;99.90;;;;;;4937656;29;20359;-87
2022/10/28 11:36:37;;;;;;;;;;;20.50;99.90;;;;;;4955841;29;19922;-87
2022/10/28 11:39:15;;;;;;;;;;;20.70;99.90;;;;;;4937288;29;19922;-87
2022/10/28 11:44:51;;;;;;;;;;;21.00;99.90;;;;;;4954904;28;19929;-87
2022/10/28 11:47:41;;;;;;;;;;;21.90;99.90;;;;;;4938304;29;19945;-87
2022/10/28 11:50:19;;;;;;;;;;;21.00;99.90;;;;;;4955373;29;20037;-87
2022/10/28 11:56:12;;;;;;;;;;;21.10;99.90;;;;;;4938266;29;20438;-87
2022/10/28 11:59:02;;;;;;;;;;;21.00;99.90;;;;;;4955687;29;19933;-87
2022/10/28 12:01:48;;;;;;;;;;;21.20;99.90;;;;;;4940632;23;20405;-86
2022/10/28 12:04:48;;;;;;;;;;;21.30;99.90;;;;;;4918619;29;20047;-86
2022/10/28 12:07:32;;;;;;;;;;;21.50;99.90;;;;;;4935993;29;19982;-86
2022/10/28 12:10:10;;;;;;;;;;;21.40;99.90;;;;;;4919463;29;19987;-87
2022/10/28 12:12:42;;;;;;;;;;;21.30;99.90;;;;;;5001194;23;20024;-87
2022/10/28 12:15:18;;;;;;;;;;;21.50;99.90;;;;;;4938194;29;19929;-87
2022/10/28 12:18:17;;;;;;;;;;;21.50;99.90;;;;;;4955465;29;20017;-88
2022/10/28 12:21:02;;;;;;;;;;;21.50;99.90;;;;;;4937497;29;19973;-87
2022/10/28 12:23:42;;;;;;;;;;;21.50;99.90;;;;;;4955069;29;20389;-87
2022/10/28 12:26:18;;;;;;;;;;;21.50;99.90;;;;;;4954826;29;19922;-87
2022/10/28 12:29:09;;;;;;;;;;;21.40;99.90;;;;;;4937665;29;20008;-87
2022/10/28 12:37:03;;;;;;;;;;;21.50;99.90;;;;;;6038188;23;19909;-87
2022/10/28 12:39:34;;;;;;;;;;;21.50;99.90;;;;;;4918787;29;19969;-87
2022/10/28 12:42:17;;;;;;;;;;;21.50;99.90;;;;;;4918843;29;19985;-87
2022/10/28 12:44:50;;;;;;;;;;;21.50;99.90;;;;;;4920115;29;19923;-88
2022/10/28 12:50:00;;;;;;;;;;;21.50;99.90;;;;;;5163507;23;19960;-87
2022/10/28 12:52:31;;;;;;;;;;;21.40;99.90;;;;;;4948450;28;19926;-87
2022/10/28 12:55:39;;;;;;;;;;;21.50;99.90;;;;;;4945530;28;20290;-87
2022/10/28 12:58:11;;;;;;;;;;;21.50;99.90;;;;;;4937734;29;19922;-86
2022/10/28 13:00:51;;;;;;;;;;;21.40;99.90;;;;;;4936934;29;19930;-87
2022/10/28 13:03:23;;;;;;;;;;;21.40;99.90;;;;;;4953433;29;20388;-86
2022/10/28 13:05:51;;;;;;;;;;;21.40;99.90;;;;;;4937419;29;19973;-86
2022/10/28 13:08:23;;;;;;;;;;;21.30;99.90;;;;;;4953873;29;19965;-86
2022/10/28 13:10:56;;;;;;;;;;;21.20;99.90;;;;;;4933949;29;19923;-84
2022/10/28 13:13:31;;;;;;;;;;;21.30;99.90;;;;;;4917020;29;19919;-84
2022/10/28 13:16:07;;;;;;;;;;;21.30;99.90;;;;;;4934902;29;19930;-84
2022/10/28 13:18:52;;;;;;;;;;;21.30;99.90;;;;;;4921418;29;19929;-84
2022/10/28 13:21:36;;;;;;;;;;;21.20;99.90;;;;;;4939213;29;19922;-84
2022/10/28 13:24:02;;;;;;;;;;;21.20;99.90;;;;;;4921608;29;19923;-84
2022/10/28 13:26:29;;;;;;;;;;;21.20;99.90;;;;;;4922283;29;19987;-84
2022/10/28 13:28:59;;;;;;;;;;;21.60;99.90;;;;;;4941299;29;19922;-83
2022/10/28 13:31:37;;;;;;;;;;;21.20;99.90;;;;;;4941641;29;20366;-83
2022/10/28 13:34:03;;;;;;;;;;;21.20;99.90;;;;;;4901500;29;19966;-84
2022/10/28 13:36:35;;;;;;;;;;;21.20;99.90;;;;;;4902987;29;19977;-84
2022/10/28 13:39:06;;;;;;;;;;;21.20;99.90;;;;;;4902814;29;19923;-84
2022/10/28 13:41:37;;;;;;;;;;;21.30;99.90;;;;;;4903263;29;20017;-84
2022/10/28 13:44:08;;;;;;;;;;;21.50;99.90;;;;;;4903185;29;19923;-86
2022/10/28 13:46:57;;;;;;;;;;;21.40;99.90;;;;;;4897027;29;19931;-86
2022/10/28 13:49:29;;;;;;;;;;;21.50;99.90;;;;;;4890396;29;19980;-86
2022/10/28 13:51:59;;;;;;;;;;;21.40;99.90;;;;;;4906648;29;19986;-86
2022/10/28 13:54:26;;;;;;;;;;;21.40;99.90;;;;;;4910626;29;19971;-86
2022/10/28 13:56:53;;;;;;;;;;;21.50;99.90;;;;;;4914277;29;19923;-86
2022/10/28 13:59:25;;;;;;;;;;;21.30;99.90;;;;;;4918085;29;19923;-85
2022/10/28 14:02:01;;;;;;;;;;;21.30;99.90;;;;;;4919264;29;19930;-86
2022/10/28 14:04:31;;;;;;;;;;;21.20;99.90;;;;;;4919401;29;19946;-86
2022/10/28 14:07:00;;;;;;;;;;;21.10;99.90;;;;;;4903983;29;19933;-86
2022/10/28 14:09:34;;;;;;;;;;;21.10;99.90;;;;;;4902142;29;19956;-86
2022/10/28 14:19:08;;;;;;;;;;;20.50;99.90;;;;;;4957631;29;20007;-86
2022/10/28 14:21:51;;;;;;;;;;;21.00;99.90;;;;;;4956811;29;19953;-87
2022/10/28 14:38:46;;;;;;;;;;;20.50;99.90;;;;;;4916936;29;19923;-87
2022/10/28 14:41:35;;;;;;;;;;;;;;;;;;;;;
2022/10/28 14:44:35;;;;;;;;;;;20.40;99.90;;;;;;4916896;29;20355;-86
2022/10/28 14:47:00;;;;;;;;;;;20.40;99.90;;;;;;4917613;29;19923;-86
2022/10/28 14:49:36;;;;;;;;;;;20.30;99.90;;;;;;4900781;29;19953;-86
2022/10/28 14:52:04;;;;;;;;;;;20.30;99.90;;;;;;4919058;29;19930;-86
2022/10/28 14:54:48;;;;;;;;;;;20.20;99.90;;;;;;4916970;29;19923;-86
2022/10/28 14:57:27;;;;;;;;;;;20.20;99.90;;;;;;4900440;29;20387;-86
2022/10/28 15:03:15;;;;;;;;;;;20.10;99.90;;;;;;4955048;23;19996;-85
2022/10/28 15:05:40;;;;;;;;;;;20.20;99.90;;;;;;4945198;28;19922;-85
2022/10/28 15:08:09;;;;;;;;;;;20.00;99.90;;;;;;4940888;28;19929;-85
2022/10/28 15:10:35;;;;;;;;;;;20.30;99.90;;;;;;4945131;28;20386;-85
2022/10/28 15:16:38;;;;;;;;;;;19.90;99.90;;;;;;4924721;29;19923;-85
2022/10/28 15:19:17;;;;;;;;;;;;;;;;;;;;;
2022/10/28 15:22:30;;;;;;;;;;;19.90;99.90;;;;;;4938561;28;19929;-87
2022/10/28 15:25:03;;;;;;;;;;;19.80;99.90;;;;;;4918632;29;19977;-86
2022/10/28 15:27:30;;;;;;;;;;;19.70;99.90;;;;;;4912553;29;20400;-86
2022/10/28 15:30:17;;;;;;;;;;;19.70;99.90;;;;;;4901243;29;20013;-85
2022/10/28 15:33:13;;;;;;;;;;;19.90;99.90;;;;;;4915830;29;19923;-85
2022/10/28 15:36:07;;;;;;;;;;;19.70;99.90;;;;;;5190432;23;19923;-86
2022/10/28 15:42:01;;;;;;;;;;;19.60;99.90;;;;;;4940405;29;19929;-85
2022/10/28 15:44:45;;;;;;;;;;;19.00;99.90;;;;;;4938308;29;19930;-86
2022/10/28 15:47:31;;;;;;;;;;;19.50;99.90;;;;;;4938795;29;19922;-86
2022/10/28 15:50:35;;;;;;;;;;;19.50;99.90;;;;;;4939704;29;20438;-86
2022/10/28 15:59:31;;;;;;;;;;;19.20;99.90;;;;;;5455947;23;19940;-86
2022/10/28 16:01:58;;;;;;;;;;;19.20;99.90;;;;;;4938187;29;19932;-86
2022/10/28 16:04:23;;;;;;;;;;;19.10;99.90;;;;;;4938210;29;19922;-86
2022/10/28 16:06:55;;;;;;;;;;;19.10;99.90;;;;;;4955202;29;19969;-86
2022/10/28 16:09:37;;;;;;;;;;;19.00;99.90;;;;;;4954939;29;19922;-86
2022/10/28 16:12:10;;;;;;;;;;;19.00;99.90;;;;;;4938487;29;19989;-86
2022/10/28 16:14:37;;;;;;;;;;;18.90;99.90;;;;;;4937554;29;20020;-86
2022/10/28 16:17:04;;;;;;;;;;;19.20;99.90;;;;;;4938154;29;19933;-86
2022/10/28 16:19:32;;;;;;;;;;;18.80;99.90;;;;;;4937166;29;20366;-86
2022/10/28 16:22:00;;;;;;;;;;;18.70;99.90;;;;;;4945890;29;20018;-86
2022/10/28 16:24:31;;;;;;;;;;;18.60;99.90;;;;;;4946596;29;19923;-86
2022/10/28 16:27:12;;;;;;;;;;;18.60;99.90;;;;;;4954310;29;20063;-86
2022/10/28 16:29:37;;;;;;;;;;;18.50;99.90;;;;;;4937678;29;19922;-86
2022/10/28 16:32:03;;;;;;;;;;;18.50;99.90;;;;;;4949304;29;19950;-85